Time;durP1;ratioP1;P1;durP2;ratioP2;P2;SDS_P1;SDS_P2;PMS_P1;PMS_P2;Temp;Humidity;BMP_temperature;BMP_pressure;BME280_temperature;BME280_humidity;BME280_pressure;Samples;Min_cycle;Max_cycle;Signal;HPM_P1;HPM_P2
2023/09/29 00:00:53;;;;;;;16.10;4.72;;;15.60;99.90;;;;;;5071300;28;20033;-60
2023/09/29 00:03:19;;;;;;;18.67;6.03;;;15.70;99.90;;;;;;5071370;28;20045;-60
2023/09/29 00:05:45;;;;;;;17.02;5.70;;;15.60;99.90;;;;;;5070110;28;20041;-60
2023/09/29 00:08:17;;;;;;;17.13;5.88;;;15.60;99.90;;;;;;5071280;28;20041;-61
2023/09/29 00:10:45;;;;;;;;;;;15.60;99.90;;;;;;5073743;28;20123;-60
2023/09/29 00:13:11;;;;;;;17.33;5.20;;;15.60;99.90;;;;;;5074902;28;20292;-60
2023/09/29 00:15:37;;;;;;;15.43;4.78;;;15.60;99.90;;;;;;5074755;28;20543;-61
2023/09/29 00:18:05;;;;;;;15.73;4.80;;;15.60;99.90;;;;;;5074704;28;20639;-60
2023/09/29 00:20:31;;;;;;;20.67;5.25;;;15.70;99.90;;;;;;5074624;28;20040;-60
2023/09/29 00:22:59;;;;;;;17.95;4.47;;;15.70;99.90;;;;;;5074861;28;20036;-60
2023/09/29 00:25:25;;;;;;;17.02;4.90;;;15.70;99.90;;;;;;5074580;28;20056;-61
2023/09/29 00:27:51;;;;;;;13.38;4.47;;;15.80;98.70;;;;;;5074750;28;20443;-60
2023/09/29 00:30:18;;;;;;;16.23;4.53;;;15.80;96.60;;;;;;5074838;28;20429;-60
2023/09/29 00:32:45;;;;;;;17.27;5.30;;;15.80;95.00;;;;;;5073280;28;20435;-60
2023/09/29 00:35:11;;;;;;;15.15;5.20;;;15.80;94.30;;;;;;5074773;28;20048;-60
2023/09/29 00:37:37;;;;;;;17.55;5.00;;;15.80;92.60;;;;;;5074630;28;20049;-60
2023/09/29 00:40:11;;;;;;;18.95;5.15;;;15.90;90.60;;;;;;5074519;28;20105;-60
2023/09/29 00:42:37;;;;;;;14.45;5.50;;;15.90;84.90;;;;;;5074700;28;20052;-60
2023/09/29 00:45:05;;;;;;;18.77;4.50;;;15.90;82.40;;;;;;5074449;28;20036;-60
2023/09/29 00:47:36;;;;;;;15.88;4.13;;;15.90;79.40;;;;;;5074507;28;20090;-60
2023/09/29 00:50:07;;;;;;;20.80;4.60;;;16.00;78.70;;;;;;5073118;28;20584;-60
2023/09/29 00:52:37;;;;;;;16.52;4.82;;;15.90;76.30;;;;;;5074292;28;20127;-60
2023/09/29 00:55:07;;;;;;;20.20;4.97;;;16.00;76.40;;;;;;5073086;28;20194;-61
2023/09/29 00:57:34;;;;;;;17.63;5.07;;;15.90;74.90;;;;;;5073941;28;20040;-60
2023/09/29 01:00:00;;;;;;;14.85;4.20;;;15.90;74.50;;;;;;5074001;28;20106;-60
2023/09/29 01:02:26;;;;;;;13.52;4.22;;;15.90;74.50;;;;;;5074279;28;20040;-60
2023/09/29 01:04:53;;;;;;;16.38;3.80;;;15.90;73.80;;;;;;5074236;28;20039;-61
2023/09/29 01:07:19;;;;;;;19.15;4.53;;;15.90;73.40;;;;;;5074193;28;20063;-61
2023/09/29 01:09:45;;;;;;;18.52;4.00;;;15.90;74.80;;;;;;5074113;28;20388;-60
2023/09/29 01:12:25;;;;;;;18.75;4.57;;;15.90;73.60;;;;;;5073726;28;20048;-60
2023/09/29 01:14:51;;;;;;;14.63;4.22;;;15.90;73.90;;;;;;5073921;28;20048;-60
2023/09/29 01:17:18;;;;;;;16.48;4.88;;;15.90;71.70;;;;;;5073938;28;20090;-60
2023/09/29 01:19:44;;;;;;;13.70;4.05;;;15.90;71.30;;;;;;5073782;28;20374;-60
2023/09/29 01:22:10;;;;;;;13.15;4.68;;;15.90;72.10;;;;;;5073629;28;20036;-61
2023/09/29 01:24:35;;;;;;;22.38;5.65;;;15.90;71.50;;;;;;5073405;28;20049;-60
2023/09/29 01:27:02;;;;;;;15.07;4.93;;;15.90;71.10;;;;;;5073419;28;20558;-61
2023/09/29 01:29:28;;;;;;;16.58;4.68;;;15.80;71.60;;;;;;5073462;28;20044;-60
2023/09/29 01:31:54;;;;;;;13.73;3.90;;;15.90;70.00;;;;;;5073734;28;20048;-60
2023/09/29 01:34:20;;;;;;;14.45;4.20;;;15.90;71.30;;;;;;5073329;28;20400;-60
2023/09/29 01:36:45;;;;;;;13.43;4.50;;;15.90;72.00;;;;;;5073324;28;20115;-60
2023/09/29 01:39:11;;;;;;;18.35;4.53;;;15.90;72.30;;;;;;5073154;28;20538;-60
2023/09/29 01:41:36;;;;;;;13.50;3.75;;;15.90;74.00;;;;;;5073276;28;20044;-60
2023/09/29 01:44:02;;;;;;;15.63;4.18;;;15.80;75.20;;;;;;5073160;28;20468;-61
2023/09/29 01:46:29;;;;;;;15.13;4.13;;;15.80;77.90;;;;;;5073031;28;20042;-61
2023/09/29 01:48:56;;;;;;;15.18;4.65;;;15.80;80.60;;;;;;5073211;28;20040;-60
2023/09/29 01:51:27;;;;;;;13.35;4.43;;;15.80;87.90;;;;;;5073060;28;20041;-60
2023/09/29 01:53:53;;;;;;;17.80;4.73;;;15.80;88.70;;;;;;5071798;28;20545;-60
2023/09/29 01:56:21;;;;;;;16.42;4.70;;;15.80;90.00;;;;;;5072977;28;20036;-60
2023/09/29 01:58:51;;;;;;;13.27;4.65;;;15.80;90.80;;;;;;5072684;28;20480;-61
2023/09/29 02:01:16;;;;;;;15.15;4.65;;;15.80;92.00;;;;;;5073012;28;20505;-61
2023/09/29 02:03:48;;;;;;;19.80;4.70;;;15.80;92.60;;;;;;5072851;28;20112;-60
2023/09/29 02:06:13;;;;;;;16.42;4.72;;;15.80;94.30;;;;;;5072773;28;20041;-60
2023/09/29 02:08:40;;;;;;;11.40;4.05;;;15.80;94.90;;;;;;5072438;28;20193;-60
2023/09/29 02:11:07;;;;;;;18.90;4.65;;;15.80;95.20;;;;;;5072759;28;20048;-60
2023/09/29 02:13:33;;;;;;;14.32;4.07;;;15.80;96.90;;;;;;5072658;28;20149;-61
2023/09/29 02:16:00;;;;;;;17.50;4.88;;;15.80;96.50;;;;;;5072624;28;20495;-60
2023/09/29 02:18:27;;;;;;;18.63;4.22;;;15.80;95.90;;;;;;5072528;28;20051;-61
2023/09/29 02:20:55;;;;;;;13.23;4.00;;;15.80;95.70;;;;;;5070927;28;20054;-60
2023/09/29 02:23:22;;;;;;;15.00;4.45;;;15.80;96.60;;;;;;5072526;28;20036;-60
2023/09/29 02:25:48;;;;;;;14.05;4.18;;;15.80;95.10;;;;;;5072652;28;20412;-60
2023/09/29 02:28:14;;;;;;;15.30;3.92;;;15.80;94.60;;;;;;5072509;28;20044;-61
2023/09/29 02:30:40;;;;;;;17.00;4.57;;;15.80;95.30;;;;;;5071261;28;20071;-61
2023/09/29 02:33:06;;;;;;;13.93;4.18;;;15.90;95.40;;;;;;5072095;28;20044;-60
2023/09/29 02:35:32;;;;;;;16.88;3.95;;;15.80;94.30;;;;;;5072172;28;20131;-60
2023/09/29 02:37:59;;;;;;;13.45;3.80;;;15.80;94.80;;;;;;5072373;28;20101;-61
2023/09/29 02:40:24;;;;;;;14.55;3.92;;;15.80;94.70;;;;;;5070914;28;20098;-60
2023/09/29 02:42:51;;;;;;;12.77;3.92;;;15.80;94.90;;;;;;5072412;28;20771;-60
2023/09/29 02:45:17;;;;;;;13.88;3.92;;;15.80;94.80;;;;;;5072277;28;20045;-60
2023/09/29 02:47:43;;;;;;;13.32;3.90;;;15.80;95.10;;;;;;5072260;28;20032;-61
2023/09/29 02:50:10;;;;;;;12.70;3.47;;;15.90;94.40;;;;;;5071925;28;20068;-61
2023/09/29 02:52:39;;;;;;;14.88;3.90;;;15.80;93.90;;;;;;5072082;28;20040;-61
2023/09/29 02:55:08;;;;;;;14.02;4.05;;;15.80;94.60;;;;;;5072288;28;20040;-61
2023/09/29 02:57:34;;;;;;;15.75;4.35;;;15.80;95.70;;;;;;5072201;28;20382;-60
2023/09/29 02:59:59;;;;;;;12.60;3.90;;;15.80;96.10;;;;;;5071998;28;20044;-60
2023/09/29 03:02:25;;;;;;;13.27;4.20;;;15.80;96.40;;;;;;5070772;28;20032;-61
2023/09/29 03:04:51;;;;;;;12.18;3.83;;;15.80;97.10;;;;;;5070611;28;20051;-61
2023/09/29 03:07:19;;;;;;;15.10;4.00;;;15.80;97.50;;;;;;5070614;28;20117;-60
2023/09/29 03:09:45;;;;;;;12.23;4.53;;;15.70;96.40;;;;;;5071895;28;20048;-60
2023/09/29 03:12:11;;;;;;;11.20;3.55;;;15.80;95.50;;;;;;5072105;28;20132;-60
2023/09/29 03:14:37;;;;;;;14.98;4.10;;;15.80;95.30;;;;;;5072123;28;20543;-60
2023/09/29 03:17:03;;;;;;;14.73;4.55;;;15.70;94.90;;;;;;5072080;28;20135;-60
2023/09/29 03:19:31;;;;;;;12.10;3.75;;;15.70;94.00;;;;;;5070541;28;20049;-60
2023/09/29 03:22:00;;;;;;;15.93;4.00;;;15.70;93.40;;;;;;5072062;28;20045;-61
2023/09/29 03:24:27;;;;;;;14.40;4.38;;;15.70;93.60;;;;;;5071780;28;20075;-60
2023/09/29 03:26:53;;;;;;;13.07;4.32;;;15.70;93.40;;;;;;5071957;28;20032;-60
2023/09/29 03:29:19;;;;;;;15.48;4.72;;;15.80;92.70;;;;;;5070327;28;20049;-60
2023/09/29 03:31:46;;;;;;;14.82;4.50;;;15.80;91.90;;;;;;5071669;28;20047;-61
2023/09/29 03:34:13;;;;;;;20.92;4.57;;;15.80;92.80;;;;;;5071878;28;20040;-60
2023/09/29 03:36:39;;;;;;;11.43;3.63;;;15.80;91.60;;;;;;5071960;28;20044;-60
2023/09/29 03:39:06;;;;;;;12.88;4.43;;;15.80;90.60;;;;;;5071855;28;20459;-61
2023/09/29 03:41:33;;;;;;;12.18;3.63;;;15.80;90.30;;;;;;5071735;28;20443;-60
2023/09/29 03:43:59;;;;;;;14.50;3.78;;;15.80;90.70;;;;;;5072333;28;20508;-60
2023/09/29 03:46:25;;;;;;;13.50;3.95;;;15.90;89.40;;;;;;5075713;28;20036;-60
2023/09/29 03:48:51;;;;;;;12.80;3.92;;;15.80;90.10;;;;;;5075412;28;20040;-60
2023/09/29 03:51:21;;;;;;;17.23;4.75;;;15.80;91.30;;;;;;5075539;28;20424;-60
2023/09/29 03:53:48;;;;;;;12.88;3.90;;;15.90;91.20;;;;;;5075602;28;20041;-60
2023/09/29 03:56:14;;;;;;;15.27;3.50;;;15.90;91.50;;;;;;5075565;28;20042;-60
2023/09/29 03:58:41;;;;;;;13.88;4.53;;;15.90;93.00;;;;;;5075222;28;20446;-60
2023/09/29 04:01:06;;;;;;;13.60;3.67;;;15.90;92.10;;;;;;5073892;28;20052;-61
2023/09/29 04:03:33;;;;;;;14.38;4.25;;;15.90;92.90;;;;;;5057238;28;20366;-60
2023/09/29 04:05:59;;;;;;;13.75;3.72;;;16.00;93.60;;;;;;5075065;28;20492;-60
2023/09/29 04:08:25;;;;;;;13.90;3.70;;;15.90;94.60;;;;;;5075325;28;20107;-60
2023/09/29 04:10:52;;;;;;;13.32;3.72;;;16.00;94.10;;;;;;5073890;28;20044;-61
2023/09/29 04:13:18;;;;;;;15.00;4.40;;;16.00;93.90;;;;;;5074860;28;20048;-60
2023/09/29 04:15:44;;;;;;;12.23;3.97;;;16.00;95.50;;;;;;5074842;28;20041;-60
2023/09/29 04:18:10;;;;;;;12.18;4.20;;;16.00;96.00;;;;;;5074799;28;20178;-60
2023/09/29 04:20:35;;;;;;;14.00;4.40;;;16.10;96.00;;;;;;5074857;28;20047;-60
2023/09/29 04:23:01;;;;;;;12.35;4.32;;;16.10;96.60;;;;;;5074773;28;20378;-60
2023/09/29 04:25:27;;;;;;;13.85;4.30;;;16.10;96.00;;;;;;5074502;28;20173;-60
2023/09/29 04:27:52;;;;;;;14.60;4.35;;;16.10;96.40;;;;;;5073422;28;20102;-61
2023/09/29 04:30:18;;;;;;;17.95;4.63;;;16.10;97.20;;;;;;5074719;28;20047;-61
2023/09/29 04:32:47;;;;;;;16.88;4.30;;;16.20;96.80;;;;;;5073198;28;20048;-70
2023/09/29 04:35:12;;;;;;;17.35;4.70;;;16.20;97.60;;;;;;5074493;28;20433;-60
2023/09/29 04:37:38;;;;;;;16.20;5.60;;;16.20;97.60;;;;;;5074459;28;20131;-61
2023/09/29 04:40:04;;;;;;;16.08;4.45;;;16.30;96.50;;;;;;5074460;28;20083;-60
2023/09/29 04:42:31;;;;;;;13.02;3.90;;;16.30;96.50;;;;;;5074602;28;20043;-60
2023/09/29 04:44:57;;;;;;;17.67;4.45;;;16.40;95.80;;;;;;5074512;28;20082;-60
2023/09/29 04:47:22;;;;;;;14.20;3.95;;;16.30;96.30;;;;;;5074259;28;20040;-59
2023/09/29 04:49:49;;;;;;;11.52;3.80;;;16.30;97.50;;;;;;5074146;28;20051;-60
2023/09/29 04:52:15;;;;;;;11.88;3.70;;;16.40;99.90;;;;;;5074279;28;20380;-61
2023/09/29 04:54:41;;;;;;;19.58;5.15;;;16.30;99.90;;;;;;5073817;28;20044;-61
2023/09/29 04:57:07;;;;;;;15.50;3.80;;;16.30;99.90;;;;;;5074237;28;20446;-60
2023/09/29 04:59:32;;;;;;;13.20;3.67;;;16.30;99.90;;;;;;5074253;28;20029;-60
2023/09/29 05:01:58;;;;;;;13.88;4.15;;;16.30;99.90;;;;;;5074149;28;20493;-60
2023/09/29 05:04:24;;;;;;;15.43;4.60;;;16.30;99.90;;;;;;5072736;28;20424;-60
2023/09/29 05:06:51;;;;;;;15.40;4.57;;;16.30;99.90;;;;;;5074092;28;20040;-61
2023/09/29 05:09:17;;;;;;;12.30;4.32;;;16.30;99.90;;;;;;5072613;28;20048;-61
2023/09/29 05:11:43;;;;;;;13.98;3.92;;;16.30;99.90;;;;;;5073878;28;20083;-60
2023/09/29 05:14:09;;;;;;;13.60;4.72;;;16.30;99.90;;;;;;5073875;28;20068;-60
2023/09/29 05:16:34;;;;;;;12.18;4.30;;;16.30;99.90;;;;;;5073813;28;20049;-60
2023/09/29 05:19:01;;;;;;;17.08;4.18;;;16.30;99.90;;;;;;5072594;28;20049;-61
2023/09/29 05:21:27;;;;;;;14.85;4.47;;;16.30;99.90;;;;;;5073627;28;20040;-60
2023/09/29 05:23:53;;;;;;;14.63;4.20;;;16.30;99.90;;;;;;5073617;28;20076;-60
2023/09/29 05:26:18;;;;;;;14.90;4.65;;;16.30;99.90;;;;;;5073692;28;20095;-60
2023/09/29 05:28:44;;;;;;;15.48;4.65;;;16.20;99.90;;;;;;5073245;28;20101;-59
2023/09/29 05:31:11;;;;;;;15.80;4.78;;;16.20;99.90;;;;;;5073531;28;20119;-59
2023/09/29 05:33:36;;;;;;;13.57;4.57;;;16.20;99.90;;;;;;5073482;28;20129;-60
2023/09/29 05:36:04;;;;;;;15.85;5.00;;;16.10;99.90;;;;;;5073408;28;20090;-60
2023/09/29 05:38:29;;;;;;;15.88;5.28;;;16.10;99.90;;;;;;5072043;28;20048;-60
2023/09/29 05:40:55;;;;;;;13.15;5.30;;;16.10;99.90;;;;;;5073404;28;20049;-60
2023/09/29 05:43:21;;;;;;;15.18;4.72;;;16.10;99.90;;;;;;5073215;28;20035;-60
2023/09/29 05:45:49;;;;;;;17.05;5.40;;;16.10;99.90;;;;;;5073340;28;20111;-60
2023/09/29 05:48:16;;;;;;;16.65;6.05;;;16.10;99.90;;;;;;5071769;28;20507;-60
2023/09/29 05:50:42;;;;;;;16.70;5.07;;;16.10;99.90;;;;;;5073176;28;20127;-60
2023/09/29 05:53:08;;;;;;;16.90;5.18;;;16.00;99.90;;;;;;5073041;28;20036;-60
2023/09/29 05:55:34;;;;;;;16.63;4.70;;;16.10;99.90;;;;;;5072784;28;20090;-60
2023/09/29 05:58:00;;;;;;;13.00;4.95;;;16.10;99.90;;;;;;5073071;28;20033;-60
2023/09/29 06:00:26;;;;;;;14.07;4.78;;;16.10;99.90;;;;;;5072758;28;20497;-60
2023/09/29 06:02:53;;;;;;;12.45;4.93;;;16.00;99.90;;;;;;5071761;28;20037;-60
2023/09/29 06:05:19;;;;;;;16.50;5.88;;;16.10;99.90;;;;;;5072797;28;20052;-60
2023/09/29 06:07:45;;;;;;;16.58;5.20;;;16.10;99.90;;;;;;5072050;28;20047;-60
2023/09/29 06:10:11;;;;;;;11.85;5.03;;;16.10;99.90;;;;;;5072643;28;20036;-60
2023/09/29 06:12:37;;;;;;;12.25;4.18;;;16.10;99.90;;;;;;5072811;28;20044;-60
2023/09/29 06:15:05;;;;;;;15.10;5.05;;;16.10;99.90;;;;;;5072678;28;20052;-60
2023/09/29 06:17:31;;;;;;;13.95;4.70;;;16.10;99.90;;;;;;5072410;28;20093;-60
2023/09/29 06:19:57;;;;;;;11.25;4.63;;;16.20;99.90;;;;;;5072379;28;20128;-60
2023/09/29 06:22:25;;;;;;;11.52;5.00;;;16.10;99.90;;;;;;5072536;28;20062;-60
2023/09/29 06:24:50;;;;;;;11.48;4.65;;;16.20;99.90;;;;;;5072027;28;20060;-60
2023/09/29 06:27:16;;;;;;;13.70;4.43;;;16.20;99.90;;;;;;5072575;28;20037;-60
2023/09/29 06:29:46;;;;;;;15.30;5.47;;;16.10;99.90;;;;;;5072598;28;20044;-60
2023/09/29 06:32:13;;;;;;;14.70;4.90;;;16.10;99.90;;;;;;5072616;28;20045;-60
2023/09/29 06:34:39;;;;;;;15.82;4.82;;;16.10;99.90;;;;;;5072288;28;20044;-60
2023/09/29 06:37:05;;;;;;;13.23;5.10;;;16.20;99.90;;;;;;5071292;28;20044;-60
2023/09/29 06:39:31;;;;;;;11.65;4.78;;;16.20;99.90;;;;;;5072148;28;20127;-60
2023/09/29 06:41:56;;;;;;;15.90;5.60;;;16.20;99.90;;;;;;5072409;28;20143;-60
2023/09/29 06:44:22;;;;;;;15.48;5.05;;;16.20;99.90;;;;;;5072162;28;20135;-60
2023/09/29 06:46:48;;;;;;;13.48;5.75;;;16.20;99.90;;;;;;5072132;28;20141;-59
2023/09/29 06:49:14;;;;;;;15.35;6.18;;;16.30;99.90;;;;;;5072277;28;20068;-60
2023/09/29 06:51:40;;;;;;;14.02;5.28;;;16.30;99.90;;;;;;5071791;28;20032;-61
2023/09/29 06:54:05;;;;;;;14.82;4.53;;;16.40;99.90;;;;;;5070679;28;20094;-60
2023/09/29 06:56:31;;;;;;;17.45;6.07;;;16.40;99.90;;;;;;5071925;28;20068;-60
2023/09/29 06:58:57;;;;;;;16.42;5.43;;;16.50;99.90;;;;;;5072161;28;20051;-61
2023/09/29 07:01:24;;;;;;;16.65;6.85;;;16.50;99.90;;;;;;5071910;28;20075;-60
2023/09/29 07:03:50;;;;;;;13.35;5.65;;;16.60;99.90;;;;;;5072039;28;20043;-60
2023/09/29 07:06:15;;;;;;;13.93;5.22;;;16.60;99.90;;;;;;5072241;28;20033;-60
2023/09/29 07:08:41;;;;;;;12.13;5.30;;;16.70;99.90;;;;;;5072192;28;20546;-60
2023/09/29 07:11:07;;;;;;;14.15;4.80;;;16.70;99.90;;;;;;5072022;28;20377;-60
2023/09/29 07:13:33;;;;;;;12.93;5.07;;;16.70;99.90;;;;;;5072122;28;20120;-60
2023/09/29 07:15:59;;;;;;;15.40;5.43;;;16.70;99.90;;;;;;5070873;28;20126;-60
2023/09/29 07:18:25;;;;;;;10.73;5.22;;;16.70;99.90;;;;;;5073337;28;20123;-60
2023/09/29 07:20:52;;;;;;;15.20;5.93;;;16.90;99.90;;;;;;5075859;28;20123;-60
2023/09/29 07:23:24;;;;;;;11.95;5.30;;;16.80;99.90;;;;;;5076184;28;20041;-60
2023/09/29 07:25:52;;;;;;;12.93;6.05;;;16.90;99.90;;;;;;5075911;28;20048;-60
2023/09/29 07:28:18;;;;;;;14.75;5.93;;;16.90;99.90;;;;;;5075701;28;20041;-59
2023/09/29 07:30:45;;;;;;;11.18;5.28;;;17.00;99.90;;;;;;5075636;28;20047;-60
2023/09/29 07:33:11;;;;;;;13.27;5.43;;;17.00;99.90;;;;;;5074711;28;20094;-60
2023/09/29 07:35:37;;;;;;;11.25;5.72;;;17.10;99.90;;;;;;5075707;28;20140;-60
2023/09/29 07:38:04;;;;;;;12.02;5.20;;;17.10;99.90;;;;;;5075664;28;20094;-60
2023/09/29 07:40:31;;;;;;;12.63;5.38;;;17.20;99.90;;;;;;5075672;28;20124;-60
2023/09/29 07:42:57;;;;;;;13.15;4.97;;;17.20;99.90;;;;;;5075605;28;20053;-60
2023/09/29 07:45:23;;;;;;;13.38;5.30;;;17.20;99.90;;;;;;5075424;28;20044;-60
2023/09/29 07:47:49;;;;;;;14.15;5.65;;;17.20;99.90;;;;;;5075394;28;20089;-60
2023/09/29 07:50:15;;;;;;;13.55;6.15;;;17.30;99.90;;;;;;5075215;28;20086;-60
2023/09/29 07:52:40;;;;;;;13.32;5.05;;;17.40;99.90;;;;;;5075654;28;20086;-60
2023/09/29 07:55:07;;;;;;;12.27;5.00;;;17.40;99.90;;;;;;5075368;28;20101;-58
2023/09/29 07:57:33;;;;;;;11.35;5.45;;;17.50;99.90;;;;;;5074949;28;20048;-60
2023/09/29 07:59:59;;;;;;;11.80;6.20;;;17.50;99.90;;;;;;5073745;28;20044;-60
2023/09/29 08:02:25;;;;;;;14.68;5.82;;;17.50;99.90;;;;;;5075301;28;20036;-61
2023/09/29 08:04:51;;;;;;;11.98;5.38;;;17.60;99.90;;;;;;5074990;28;20082;-60
2023/09/29 08:07:17;;;;;;;13.25;5.00;;;17.60;99.90;;;;;;5075152;28;20481;-60
2023/09/29 08:09:44;;;;;;;14.80;5.05;;;17.70;99.90;;;;;;5074042;28;20365;-60
2023/09/29 08:12:09;;;;;;;10.95;4.75;;;17.70;99.90;;;;;;5074988;28;20036;-60
2023/09/29 08:14:35;;;;;;;9.88;4.80;;;17.80;99.90;;;;;;5075178;28;20090;-60
2023/09/29 08:17:02;;;;;;;10.65;4.68;;;17.90;99.90;;;;;;5075094;28;20048;-60
2023/09/29 08:19:28;;;;;;;10.32;4.30;;;17.90;99.90;;;;;;5075004;28;20105;-60
2023/09/29 08:21:54;;;;;;;11.80;4.63;;;18.10;99.90;;;;;;5073483;28;20040;-60
2023/09/29 08:24:20;;;;;;;10.90;4.78;;;18.20;99.90;;;;;;5073242;28;20097;-60
2023/09/29 08:26:46;;;;;;;10.07;4.68;;;18.30;99.90;;;;;;5074716;28;20119;-60
2023/09/29 08:29:15;;;;;;;10.30;4.60;;;18.30;99.90;;;;;;5074342;28;20591;-60
2023/09/29 08:31:44;;;;;;;8.55;4.13;;;18.40;99.90;;;;;;5073381;28;20051;-60
2023/09/29 08:34:10;;;;;;;10.10;4.32;;;18.40;99.90;;;;;;5074930;28;20040;-60
2023/09/29 08:36:36;;;;;;;8.85;4.13;;;18.50;99.90;;;;;;5074675;28;20032;-60
2023/09/29 08:39:01;;;;;;;10.75;4.60;;;18.60;99.90;;;;;;5074385;28;20036;-60
2023/09/29 08:41:29;;;;;;;9.23;4.03;;;18.60;99.90;;;;;;5074682;28;20032;-60
2023/09/29 08:43:55;;;;;;;10.00;4.78;;;18.70;99.90;;;;;;5074450;28;20047;-61
2023/09/29 08:46:21;;;;;;;9.40;4.43;;;18.80;99.90;;;;;;5074451;28;20032;-60
2023/09/29 08:48:48;;;;;;;9.00;4.07;;;19.00;99.20;;;;;;5072863;28;20612;-60
2023/09/29 08:51:17;;;;;;;9.43;3.75;;;19.00;94.60;;;;;;5074324;28;20045;-60
2023/09/29 08:53:44;;;;;;;11.25;4.72;;;19.10;94.10;;;;;;5074401;28;20083;-59
2023/09/29 08:56:16;;;;;;;11.00;4.38;;;19.20;93.70;;;;;;5074555;28;20041;-60
2023/09/29 08:58:42;;;;;;;10.88;4.32;;;19.20;93.50;;;;;;5074496;28;20119;-60
2023/09/29 09:01:11;;;;;;;11.07;3.97;;;19.20;92.70;;;;;;5073914;28;20041;-60
2023/09/29 09:03:37;;;;;;;8.00;3.60;;;19.40;95.20;;;;;;5074252;28;20064;-60
2023/09/29 09:06:22;;;;;;;8.32;3.78;;;19.50;91.90;;;;;;5074032;28;20063;-60
2023/09/29 09:08:50;;;;;;;8.93;3.78;;;19.50;88.90;;;;;;5073911;28;20048;-60
2023/09/29 09:11:16;;;;;;;11.90;3.53;;;19.60;91.00;;;;;;5072515;28;20040;-61
2023/09/29 09:13:42;;;;;;;7.22;3.70;;;19.70;82.60;;;;;;5073671;28;20048;-61
2023/09/29 09:16:07;;;;;;;9.23;3.53;;;19.80;76.00;;;;;;5073884;28;20040;-61
2023/09/29 09:18:33;;;;;;;9.40;4.20;;;19.90;76.70;;;;;;5072677;28;20115;-61
2023/09/29 09:20:59;;;;;;;9.27;3.58;;;19.80;77.20;;;;;;5073860;28;20047;-60
2023/09/29 09:23:35;;;;;;;9.32;3.42;;;19.80;76.80;;;;;;5072510;28;20048;-60
2023/09/29 09:26:17;;;;;;;9.38;3.55;;;19.80;80.10;;;;;;5073716;28;20127;-60
2023/09/29 09:28:43;;;;;;;9.50;3.83;;;19.70;75.00;;;;;;5072403;28;20044;-60
2023/09/29 09:31:10;;;;;;;9.73;3.80;;;19.80;78.00;;;;;;5073777;28;20048;-60
2023/09/29 09:33:36;;;;;;;10.38;3.85;;;19.80;79.20;;;;;;5072319;28;20074;-60
2023/09/29 09:36:11;;;;;;;9.95;4.18;;;19.80;78.00;;;;;;5072133;28;20151;-61
2023/09/29 09:38:37;;;;;;;12.27;4.10;;;19.80;72.70;;;;;;5071955;28;20055;-60
2023/09/29 09:41:04;;;;;;;8.35;3.65;;;19.90;76.90;;;;;;5072588;28;20045;-61
2023/09/29 09:43:34;;;;;;;8.63;3.80;;;19.90;80.10;;;;;;5072720;28;20393;-61
2023/09/29 09:46:04;;;;;;;11.98;3.75;;;19.90;72.60;;;;;;5073053;28;20112;-61
2023/09/29 09:48:55;;;;;;;8.88;3.92;;;19.90;65.80;;;;;;5072994;28;20036;-61
2023/09/29 09:51:34;;;;;;;9.85;4.18;;;20.00;76.10;;;;;;5073270;28;20032;-60
2023/09/29 09:54:03;;;;;;;8.30;4.10;;;19.90;67.70;;;;;;5073309;28;20055;-61
2023/09/29 09:56:45;;;;;;;10.10;3.88;;;20.00;66.60;;;;;;5073172;28;20064;-60
2023/09/29 09:59:13;;;;;;;9.40;4.00;;;20.00;71.10;;;;;;5072775;28;20074;-61
2023/09/29 10:01:40;;;;;;;9.25;3.78;;;20.10;70.00;;;;;;5073090;28;20120;-61
2023/09/29 10:04:07;;;;;;;9.40;4.13;;;20.00;76.30;;;;;;5071610;28;20040;-61
2023/09/29 10:06:34;;;;;;;10.60;4.30;;;20.10;76.30;;;;;;5071798;28;20036;-60
2023/09/29 10:09:01;;;;;;;10.85;4.85;;;20.00;69.60;;;;;;5072833;28;20047;-60
2023/09/29 10:11:27;;;;;;;8.27;4.20;;;20.10;73.40;;;;;;5072642;28;20079;-60
2023/09/29 10:14:08;;;;;;;13.88;4.38;;;20.20;78.50;;;;;;5072783;28;20044;-61
2023/09/29 10:16:38;;;;;;;12.60;4.55;;;20.20;73.80;;;;;;5072438;28;20124;-61
2023/09/29 10:19:12;;;;;;;7.78;4.07;;;20.10;72.90;;;;;;5072430;28;20123;-60
2023/09/29 10:21:45;;;;;;;11.55;5.35;;;20.10;75.00;;;;;;5072785;28;20048;-61
2023/09/29 10:24:27;;;;;;;9.13;4.07;;;20.20;76.90;;;;;;5071100;28;20048;-60
2023/09/29 10:26:52;;;;;;;9.43;4.47;;;20.20;77.50;;;;;;5072332;28;20063;-60
2023/09/29 10:29:20;;;;;;;14.52;4.90;;;20.20;78.20;;;;;;5072747;28;20036;-61
2023/09/29 10:31:46;;;;;;;12.60;5.28;;;20.20;71.60;;;;;;5072492;28;20039;-61
2023/09/29 10:34:22;;;;;;;13.02;5.22;;;20.20;74.60;;;;;;5072439;28;20032;-60
2023/09/29 10:36:56;;;;;;;12.15;4.68;;;20.00;76.00;;;;;;5072480;28;20040;-60
2023/09/29 10:39:26;;;;;;;10.27;4.47;;;20.00;85.00;;;;;;5072444;28;20036;-61
2023/09/29 10:42:13;;;;;;;10.25;4.40;;;19.90;86.30;;;;;;5072406;28;20033;-61
2023/09/29 10:44:56;;;;;;;11.55;4.28;;;19.90;88.30;;;;;;5072148;28;20064;-60
2023/09/29 10:47:36;;;;;;;9.60;3.80;;;19.80;90.10;;;;;;5072364;28;20048;-61
2023/09/29 10:50:11;;;;;;;10.40;4.30;;;19.80;92.50;;;;;;5072271;28;20063;-61
2023/09/29 10:52:37;;;;;;;10.02;3.97;;;19.70;96.20;;;;;;5071942;28;20115;-60
2023/09/29 10:55:11;;;;;;;7.85;4.30;;;19.60;99.90;;;;;;5072237;28;20111;-61
2023/09/29 10:57:37;;;;;;;10.82;4.88;;;19.50;99.90;;;;;;5071959;28;20194;-60
2023/09/29 11:00:05;;;;;;;10.07;4.60;;;19.40;99.90;;;;;;5071023;28;20127;-61
2023/09/29 11:02:32;;;;;;;11.48;4.45;;;19.30;99.90;;;;;;5072047;28;20040;-60
2023/09/29 11:05:03;;;;;;;10.82;4.80;;;19.40;99.90;;;;;;5072166;28;20039;-61
2023/09/29 11:07:29;;;;;;;11.18;4.45;;;19.40;99.90;;;;;;5072102;28;20173;-61
2023/09/29 11:09:59;;;;;;;13.13;4.60;;;19.40;99.90;;;;;;5071935;28;20121;-61
2023/09/29 11:12:27;;;;;;;10.57;5.05;;;19.40;99.90;;;;;;5071877;28;20033;-61
2023/09/29 11:15:06;;;;;;;12.15;4.63;;;19.30;99.90;;;;;;5072044;28;20040;-61
2023/09/29 11:17:45;;;;;;;9.57;4.68;;;19.30;99.90;;;;;;5070652;28;20044;-61
2023/09/29 11:20:27;;;;;;;9.77;4.30;;;19.30;99.90;;;;;;5071829;28;20183;-59
2023/09/29 11:23:11;;;;;;;12.50;5.45;;;19.30;99.90;;;;;;5071009;28;20033;-60
2023/09/29 11:25:48;;;;;;;11.18;5.53;;;19.20;99.90;;;;;;5071594;28;20579;-61
2023/09/29 11:28:14;;;;;;;10.25;4.88;;;19.30;99.90;;;;;;5071747;28;20146;-60
2023/09/29 11:30:40;;;;;;;10.45;4.85;;;19.20;99.90;;;;;;5071662;28;20047;-61
2023/09/29 11:33:10;;;;;;;10.20;5.30;;;19.30;99.90;;;;;;5071512;28;20381;-61
2023/09/29 11:35:36;;;;;;;10.80;5.00;;;19.20;99.90;;;;;;5071969;28;20374;-60
2023/09/29 11:38:03;;;;;;;11.13;5.65;;;19.20;99.90;;;;;;5070451;28;20054;-61
2023/09/29 11:40:28;;;;;;;11.65;5.05;;;19.20;99.90;;;;;;5071856;28;20366;-61
2023/09/29 11:42:54;;;;;;;11.40;5.93;;;19.20;99.90;;;;;;5071699;28;20043;-60
2023/09/29 11:45:20;;;;;;;12.10;6.72;;;19.20;99.90;;;;;;5070370;28;20116;-60
2023/09/29 11:47:46;;;;;;;15.77;6.53;;;19.30;99.90;;;;;;5070675;28;20040;-61
2023/09/29 11:50:11;;;;;;;12.75;7.13;;;19.20;99.90;;;;;;5071018;28;20044;-60
2023/09/29 11:52:39;;;;;;;9.15;3.00;;;19.10;99.90;;;;;;5070984;28;20400;-61
2023/09/29 11:55:11;;;;;;;5.85;1.70;;;18.70;99.90;;;;;;5070889;28;20045;-60
2023/09/29 11:57:40;;;;;;;4.40;1.23;;;18.20;99.90;;;;;;5070305;28;20047;-61
2023/09/29 12:00:09;;;;;;;4.18;1.13;;;18.00;99.90;;;;;;5070862;28;20365;-60
2023/09/29 12:02:36;;;;;;;5.63;1.13;;;17.70;99.90;;;;;;5071373;28;20388;-60
2023/09/29 12:05:04;;;;;;;3.60;1.08;;;17.70;99.90;;;;;;5072234;28;20051;-60
2023/09/29 12:07:31;;;;;;;5.50;1.20;;;17.50;99.90;;;;;;5075000;28;20090;-60
2023/09/29 12:09:56;;;;;;;2.88;0.82;;;17.40;99.90;;;;;;5075061;28;20056;-61
2023/09/29 12:12:22;;;;;;;5.75;0.90;;;17.40;99.90;;;;;;5075013;28;20048;-61
2023/09/29 12:14:48;;;;;;;4.47;1.13;;;17.20;99.90;;;;;;5074459;28;20048;-61
2023/09/29 12:17:13;;;;;;;5.72;0.90;;;17.20;99.90;;;;;;5074786;28;20365;-61
2023/09/29 12:19:39;;;;;;;6.07;1.40;;;17.20;99.90;;;;;;5074581;28;20091;-61
2023/09/29 12:22:05;;;;;;;4.47;1.10;;;17.10;99.90;;;;;;5074622;28;20040;-61
2023/09/29 12:24:31;;;;;;;4.28;1.20;;;17.10;99.90;;;;;;5074352;28;20051;-59
2023/09/29 12:26:58;;;;;;;5.30;1.20;;;17.10;99.90;;;;;;5073132;28;20499;-61
2023/09/29 12:29:24;;;;;;;8.85;1.65;;;17.00;99.90;;;;;;5074622;28;20036;-60
2023/09/29 12:31:50;;;;;;;8.80;1.50;;;16.70;99.90;;;;;;5074545;28;20539;-61
2023/09/29 12:34:17;;;;;;;6.43;1.67;;;16.60;99.90;;;;;;5074536;28;20071;-61
2023/09/29 12:36:44;;;;;;;6.25;1.38;;;16.50;99.90;;;;;;5074441;28;20044;-61
2023/09/29 12:39:10;;;;;;;7.97;1.60;;;16.40;99.90;;;;;;5074433;28;20043;-61